createdAt,value
2022-10-18T00:00:08.231Z,8.55
2022-10-18T00:02:38.074Z,8.40
2022-10-18T00:05:05.854Z,8.85
2022-10-18T00:07:33.083Z,8.98
2022-10-18T00:10:00.282Z,8.18
2022-10-18T00:12:27.105Z,8.45
2022-10-18T00:14:53.960Z,8.43
2022-10-18T00:17:20.838Z,8.48
2022-10-18T00:19:47.642Z,8.13
2022-10-18T00:22:14.543Z,8.48
2022-10-18T00:24:41.406Z,7.80
2022-10-18T00:27:08.464Z,9.07
2022-10-18T00:29:36.217Z,8.00
2022-10-18T00:32:03.163Z,8.43
2022-10-18T00:34:29.963Z,8.80
2022-10-18T00:36:56.815Z,8.52
2022-10-18T00:39:23.555Z,8.63
2022-10-18T00:41:50.834Z,8.15
2022-10-18T00:44:17.652Z,8.95
2022-10-18T00:46:47.421Z,8.73
2022-10-18T00:49:53.326Z,8.77
2022-10-18T00:52:25.867Z,8.40
2022-10-18T00:54:55.019Z,8.98
2022-10-18T00:57:23.372Z,8.95
2022-10-18T00:59:50.597Z,8.77
2022-10-18T01:02:18.541Z,8.35
2022-10-18T01:04:47.235Z,8.73
2022-10-18T01:07:26.678Z,8.48
2022-10-18T01:10:30.088Z,8.43
2022-10-18T01:13:14.547Z,8.82
2022-10-18T01:15:45.785Z,8.50
2022-10-18T01:18:25.880Z,8.07
2022-10-18T01:21:01.768Z,8.60
2022-10-18T01:23:37.396Z,8.73
2022-10-18T01:26:29.964Z,9.35
2022-10-18T01:29:28.890Z,8.70
2022-10-18T01:32:10.382Z,9.37
2022-10-18T01:34:40.301Z,9.13
2022-10-18T01:37:12.280Z,9.07
2022-10-18T01:39:42.684Z,8.73
2022-10-18T01:42:12.409Z,8.48
2022-10-18T01:44:41.900Z,8.30
2022-10-18T01:47:12.452Z,8.27
2022-10-18T01:49:39.406Z,8.25
2022-10-18T01:54:42.836Z,8.48
2022-10-18T01:57:29.951Z,8.43
2022-10-18T02:00:16.921Z,8.15
2022-10-18T02:02:51.969Z,7.88
2022-10-18T02:05:39.864Z,8.55
2022-10-18T02:08:27.792Z,7.63
2022-10-18T02:11:00.173Z,7.93
2022-10-18T02:13:33.484Z,8.30
2022-10-18T02:16:07.887Z,7.72
2022-10-18T02:18:39.844Z,8.70
2022-10-18T02:21:11.456Z,8.50
2022-10-18T02:23:39.021Z,8.10
2022-10-18T02:26:06.464Z,8.15
2022-10-18T02:28:33.246Z,8.10
2022-10-18T02:31:30.229Z,8.32
2022-10-18T02:34:02.263Z,8.25
2022-10-18T02:36:36.404Z,8.10
2022-10-18T02:39:08.396Z,7.88
2022-10-18T02:41:35.249Z,8.35
2022-10-18T02:44:02.102Z,8.35
2022-10-18T02:46:28.982Z,9.35
2022-10-18T02:48:55.967Z,7.60
2022-10-18T02:51:23.934Z,8.05
2022-10-18T02:53:50.926Z,8.25
2022-10-18T02:56:17.783Z,8.10
2022-10-18T02:58:44.611Z,8.55
2022-10-18T03:01:11.585Z,8.67
2022-10-18T03:03:38.662Z,7.70
2022-10-18T03:06:05.638Z,8.00
2022-10-18T03:08:32.492Z,8.65
2022-10-18T03:10:59.439Z,8.38
2022-10-18T03:13:26.261Z,7.97
2022-10-18T03:15:53.180Z,8.30
2022-10-18T03:18:20.237Z,8.93
2022-10-18T03:20:46.970Z,7.88
2022-10-18T03:23:13.932Z,7.80
2022-10-18T03:25:42.897Z,8.33
2022-10-18T03:28:12.391Z,8.02
2022-10-18T03:30:39.228Z,8.40
2022-10-18T03:33:06.838Z,7.88
2022-10-18T03:35:33.764Z,8.23
2022-10-18T03:38:00.510Z,7.60
2022-10-18T03:40:27.372Z,8.13
2022-10-18T03:42:54.212Z,8.73
2022-10-18T03:45:21.092Z,8.52
2022-10-18T03:47:47.914Z,9.02
2022-10-18T03:50:14.844Z,8.27
2022-10-18T03:52:41.685Z,8.43
2022-10-18T03:55:08.753Z,8.60
2022-10-18T03:57:35.719Z,9.25
2022-10-18T04:00:02.581Z,8.90
2022-10-18T04:02:38.954Z,8.97
2022-10-18T04:05:06.113Z,8.13
2022-10-18T04:07:33.597Z,8.10
2022-10-18T04:10:00.414Z,8.35
2022-10-18T04:12:27.153Z,8.38
2022-10-18T04:14:55.586Z,8.47
2022-10-18T04:17:22.605Z,8.00
2022-10-18T04:19:49.351Z,8.35
2022-10-18T04:22:16.438Z,8.15
2022-10-18T04:24:43.306Z,8.18
2022-10-18T04:27:10.074Z,7.67
2022-10-18T04:29:36.874Z,7.63
2022-10-18T04:32:03.703Z,8.20
2022-10-18T04:34:30.569Z,8.27
2022-10-18T04:36:57.476Z,8.38
2022-10-18T04:39:24.237Z,8.00
2022-10-18T04:41:51.060Z,9.50
2022-10-18T04:44:17.828Z,9.15
2022-10-18T04:46:44.688Z,9.10
2022-10-18T04:49:11.513Z,8.10
2022-10-18T04:51:38.415Z,8.00
2022-10-18T04:54:05.315Z,8.90
2022-10-18T04:56:32.510Z,7.82
2022-10-18T04:58:59.679Z,8.48
2022-10-18T05:01:26.584Z,7.45
2022-10-18T05:03:54.863Z,8.40
2022-10-18T05:06:23.248Z,8.52
2022-10-18T05:08:50.082Z,7.72
2022-10-18T05:11:16.871Z,8.07
2022-10-18T05:13:46.044Z,8.27
2022-10-18T05:16:15.323Z,8.10
2022-10-18T05:18:42.248Z,8.27
2022-10-18T05:21:09.058Z,8.10
2022-10-18T05:23:35.871Z,8.57
2022-10-18T05:26:05.110Z,7.70
2022-10-18T05:28:39.609Z,8.30
2022-10-18T05:31:10.679Z,8.13
2022-10-18T05:33:37.494Z,7.53
2022-10-18T05:36:05.704Z,8.02
2022-10-18T05:38:32.520Z,7.88
2022-10-18T05:40:59.938Z,8.30
2022-10-18T05:43:30.163Z,8.35
2022-10-18T05:45:57.150Z,7.88
2022-10-18T05:48:23.902Z,7.75
2022-10-18T05:50:50.753Z,7.70
2022-10-18T05:53:37.079Z,7.40
2022-10-18T05:56:04.914Z,7.93
2022-10-18T05:58:31.737Z,8.10
2022-10-18T06:01:03.226Z,8.35
2022-10-18T06:03:30.008Z,9.35
2022-10-18T06:06:05.171Z,9.10
2022-10-18T06:08:32.458Z,8.07
2022-10-18T06:10:59.574Z,8.23
2022-10-18T06:13:26.615Z,8.10
2022-10-18T06:15:56.987Z,9.13
2022-10-18T06:18:23.744Z,9.40
2022-10-18T06:20:57.224Z,8.88
2022-10-18T06:23:24.215Z,8.85
2022-10-18T06:25:50.886Z,9.60
2022-10-18T06:28:18.633Z,9.02
2022-10-18T06:30:45.440Z,8.90
2022-10-18T06:33:12.269Z,9.25
2022-10-18T06:35:39.127Z,9.80
2022-10-18T06:38:05.876Z,9.15
2022-10-18T06:40:32.742Z,9.75
2022-10-18T06:43:00.492Z,9.40
2022-10-18T06:45:37.417Z,9.20
2022-10-18T06:48:04.400Z,9.30
2022-10-18T06:50:31.309Z,9.25
2022-10-18T06:52:58.160Z,9.00
2022-10-18T06:55:25.011Z,8.60
2022-10-18T06:57:53.099Z,10.73
2022-10-18T07:00:20.032Z,23.35
2022-10-18T07:02:46.848Z,10.23
2022-10-18T07:05:13.778Z,14.13
2022-10-18T07:07:40.904Z,22.23
2022-10-18T07:10:11.180Z,17.92
2022-10-18T07:12:39.559Z,8.93
2022-10-18T07:15:09.471Z,8.73
2022-10-18T07:17:36.941Z,7.60
2022-10-18T07:20:03.892Z,7.77
2022-10-18T07:22:31.019Z,7.32
2022-10-18T07:24:57.778Z,6.75
2022-10-18T07:27:24.564Z,7.03
2022-10-18T07:29:51.424Z,7.80
2022-10-18T07:32:18.226Z,7.70
2022-10-18T07:34:44.984Z,7.47
2022-10-18T07:37:11.924Z,8.05
2022-10-18T07:39:38.725Z,7.78
2022-10-18T07:42:07.175Z,7.03
2022-10-18T07:44:37.524Z,7.83
2022-10-18T07:47:04.344Z,7.30
2022-10-18T07:49:31.114Z,7.47
2022-10-18T07:51:57.964Z,7.25
2022-10-18T07:54:24.756Z,7.30
2022-10-18T07:56:51.590Z,6.77
2022-10-18T07:59:18.394Z,6.80
2022-10-18T08:01:45.296Z,6.43
2022-10-18T08:04:16.204Z,7.15
2022-10-18T08:06:43.602Z,6.65
2022-10-18T08:09:10.398Z,6.30
2022-10-18T08:11:37.219Z,6.60
2022-10-18T08:14:04.010Z,6.50
2022-10-18T08:19:02.583Z,6.70
2022-10-18T08:21:29.387Z,6.07
2022-10-18T08:23:56.253Z,6.95
2022-10-18T08:26:23.999Z,7.00
2022-10-18T08:29:10.255Z,6.07
2022-10-18T08:31:38.183Z,6.68
2022-10-18T08:34:04.968Z,6.40
2022-10-18T08:36:31.779Z,6.35
2022-10-18T08:38:58.888Z,6.13
2022-10-18T08:41:25.614Z,6.40
2022-10-18T08:44:07.197Z,6.32
2022-10-18T08:46:36.008Z,6.37
2022-10-18T08:49:05.754Z,6.20
2022-10-18T08:51:41.612Z,5.93
2022-10-18T08:54:13.877Z,6.30
2022-10-18T08:56:50.815Z,6.20
2022-10-18T08:59:19.928Z,5.83
2022-10-18T09:02:06.916Z,6.60
2022-10-18T09:04:52.430Z,6.15
2022-10-18T09:07:47.347Z,6.10
2022-10-18T09:10:38.669Z,6.22
2022-10-18T09:13:28.066Z,5.67
2022-10-18T09:16:11.058Z,6.05
2022-10-18T09:19:02.391Z,5.90
2022-10-18T09:21:55.088Z,6.25
2022-10-18T09:24:38.967Z,5.90
2022-10-18T09:27:15.353Z,5.80
2022-10-18T09:29:54.736Z,5.82
2022-10-18T09:32:48.524Z,6.15
2022-10-18T09:35:21.505Z,6.32
2022-10-18T09:37:50.217Z,6.05
2022-10-18T09:40:19.719Z,6.03
2022-10-18T09:42:55.490Z,5.65
2022-10-18T09:45:35.259Z,5.90
2022-10-18T09:48:18.928Z,5.90
2022-10-18T09:50:57.024Z,5.95
2022-10-18T09:53:42.202Z,6.17
2022-10-18T09:56:29.125Z,6.20
2022-10-18T09:58:55.957Z,6.07
2022-10-18T10:01:25.795Z,6.50
2022-10-18T10:03:53.783Z,6.05
2022-10-18T10:06:32.928Z,5.90
2022-10-18T10:09:01.245Z,6.28
2022-10-18T10:11:33.489Z,5.35
2022-10-18T10:14:18.370Z,5.97
2022-10-18T10:17:06.888Z,5.60
2022-10-18T10:19:37.478Z,5.07
2022-10-18T10:22:10.727Z,5.60
2022-10-18T10:24:47.141Z,5.40
2022-10-18T10:27:19.625Z,5.28
2022-10-18T10:29:46.417Z,5.45
2022-10-18T10:32:15.676Z,5.40
2022-10-18T10:34:44.736Z,6.05
2022-10-18T10:37:32.018Z,6.03
2022-10-18T10:40:18.421Z,5.88
2022-10-18T10:43:33.018Z,6.05
2022-10-18T10:46:02.611Z,5.47
2022-10-18T10:48:39.434Z,5.63
2022-10-18T10:51:09.816Z,6.00
2022-10-18T10:53:57.486Z,6.40
2022-10-18T10:56:32.595Z,5.82
2022-10-18T10:59:17.529Z,5.63
2022-10-18T11:01:44.444Z,6.30
2022-10-18T11:04:29.586Z,6.28
2022-10-18T11:07:21.144Z,5.78
2022-10-18T11:09:50.855Z,6.07
2022-10-18T11:12:34.477Z,6.00
2022-10-18T11:15:10.724Z,5.82
2022-10-18T11:18:28.624Z,5.75
2022-10-18T11:21:10.356Z,5.80
2022-10-18T11:23:39.241Z,6.38
2022-10-18T11:26:11.922Z,5.63
2022-10-18T11:29:06.284Z,6.22
2022-10-18T11:31:37.589Z,5.95
2022-10-18T11:34:42.351Z,5.97
2022-10-18T11:37:36.059Z,5.53
2022-10-18T11:40:31.279Z,5.37
2022-10-18T11:43:30.387Z,5.68
2022-10-18T11:46:32.252Z,5.53
2022-10-18T11:49:10.819Z,5.80
2022-10-18T11:52:08.667Z,6.40
2022-10-18T11:55:05.164Z,6.10
2022-10-18T11:57:53.173Z,5.68
2022-10-18T12:03:18.814Z,6.05
2022-10-18T12:05:48.792Z,5.72
2022-10-18T12:08:25.535Z,6.20
2022-10-18T12:11:05.142Z,5.97
2022-10-18T12:13:57.411Z,5.60
2022-10-18T12:16:49.543Z,6.35
2022-10-18T12:19:28.577Z,6.05
2022-10-18T12:21:58.357Z,6.53
2022-10-18T12:24:28.920Z,6.63
2022-10-18T12:27:00.566Z,6.70
2022-10-18T12:29:50.676Z,6.80
2022-10-18T12:32:31.652Z,6.43
2022-10-18T12:35:06.985Z,6.17
2022-10-18T12:38:18.837Z,6.55
2022-10-18T12:40:49.547Z,6.38
2022-10-18T12:43:22.957Z,5.90
2022-10-18T12:46:01.563Z,6.07
2022-10-18T12:49:10.319Z,6.40
2022-10-18T12:52:09.853Z,6.38
2022-10-18T12:54:39.742Z,6.10
2022-10-18T12:57:22.516Z,6.35
2022-10-18T12:59:49.709Z,6.95
2022-10-18T13:02:22.959Z,6.10
2022-10-18T13:04:50.088Z,6.90
2022-10-18T13:07:32.159Z,6.80
2022-10-18T13:10:08.261Z,6.45
2022-10-18T13:12:50.209Z,6.30
2022-10-18T13:15:34.192Z,6.70
2022-10-18T13:18:17.564Z,6.82
2022-10-18T13:21:05.799Z,5.80
2022-10-18T13:23:53.967Z,6.38
2022-10-18T13:26:29.783Z,7.00
2022-10-18T13:29:02.104Z,6.83
2022-10-18T13:31:37.326Z,6.57
2022-10-18T13:34:22.299Z,7.57
2022-10-18T13:37:10.873Z,7.45
2022-10-18T13:39:39.862Z,7.68
2022-10-18T13:42:15.735Z,6.27
2022-10-18T13:44:43.962Z,6.88
2022-10-18T13:47:12.355Z,6.60
2022-10-18T13:49:39.071Z,6.25
2022-10-18T13:52:17.805Z,6.50
2022-10-18T13:54:58.372Z,6.60
2022-10-18T13:57:59.226Z,6.53
2022-10-18T14:00:54.904Z,6.40
2022-10-18T14:06:27.167Z,5.93
2022-10-18T14:09:13.859Z,7.17
2022-10-18T14:12:11.568Z,6.70
2022-10-18T14:14:45.638Z,6.75
2022-10-18T14:17:26.024Z,6.07
2022-10-18T14:20:02.591Z,6.80
2022-10-18T14:22:41.195Z,6.63
2022-10-18T14:25:25.937Z,6.75
2022-10-18T14:28:12.356Z,6.53
2022-10-18T14:30:58.521Z,9.98
2022-10-18T14:33:36.272Z,9.00
2022-10-18T14:36:15.330Z,6.50
2022-10-18T14:38:59.010Z,9.25
2022-10-18T14:41:37.928Z,9.77
2022-10-18T14:44:29.470Z,8.30
2022-10-18T14:47:02.464Z,7.80
2022-10-18T14:49:30.582Z,7.63
2022-10-18T14:52:00.330Z,6.82
2022-10-18T14:54:32.945Z,5.90
2022-10-18T14:57:01.409Z,6.35
2022-10-18T14:59:32.480Z,6.05
2022-10-18T15:02:11.940Z,5.87
2022-10-18T15:04:38.852Z,6.55
2022-10-18T15:07:14.082Z,6.22
2022-10-18T15:09:42.036Z,6.28
2022-10-18T15:12:13.744Z,5.93
2022-10-18T15:14:42.615Z,6.10
2022-10-18T15:17:17.133Z,6.10
2022-10-18T15:20:01.815Z,5.93
2022-10-18T15:22:33.679Z,5.57
2022-10-18T15:25:17.474Z,5.95
2022-10-18T15:27:53.897Z,5.20
2022-10-18T15:30:26.203Z,5.43
2022-10-18T15:32:56.685Z,5.43
2022-10-18T15:35:28.962Z,5.47
2022-10-18T15:37:59.004Z,4.70
2022-10-18T15:40:32.756Z,5.30
2022-10-18T15:43:24.726Z,5.18
2022-10-18T15:45:54.835Z,5.57
2022-10-18T15:48:37.611Z,5.82
2022-10-18T15:51:22.275Z,5.47
2022-10-18T15:53:54.188Z,5.37
2022-10-18T15:56:35.315Z,5.38
2022-10-18T15:59:05.555Z,5.78
2022-10-18T16:01:45.932Z,5.88
2022-10-18T16:04:26.288Z,5.57
2022-10-18T16:06:54.058Z,6.37
2022-10-18T16:09:22.221Z,6.05
2022-10-18T16:11:52.832Z,6.72
2022-10-18T16:14:22.758Z,6.00
2022-10-18T16:16:54.018Z,6.70
2022-10-18T16:19:20.786Z,6.40
2022-10-18T16:21:47.582Z,6.32
2022-10-18T16:24:14.447Z,5.97
2022-10-18T16:26:41.839Z,6.78
2022-10-18T16:29:15.075Z,6.65
2022-10-18T16:31:42.640Z,5.77
2022-10-18T16:34:09.532Z,6.05
2022-10-18T16:36:36.430Z,7.10
2022-10-18T16:39:06.863Z,6.65
2022-10-18T16:41:34.253Z,6.72
2022-10-18T16:44:01.096Z,7.00
2022-10-18T16:46:32.303Z,6.72
2022-10-18T16:49:00.109Z,7.10
2022-10-18T16:51:28.321Z,6.68
2022-10-18T16:53:55.608Z,6.97
2022-10-18T16:56:29.457Z,6.53
2022-10-18T16:58:57.836Z,6.90
2022-10-18T17:01:26.085Z,6.50
2022-10-18T17:03:53.875Z,6.80
2022-10-18T17:06:28.617Z,6.75
2022-10-18T17:08:56.884Z,6.50
2022-10-18T17:11:26.674Z,6.70
2022-10-18T17:13:54.487Z,6.45
2022-10-18T17:16:31.050Z,6.45
2022-10-18T17:19:00.765Z,7.03
2022-10-18T17:21:29.497Z,7.00
2022-10-18T17:23:57.307Z,6.15
2022-10-18T17:26:29.389Z,6.65
2022-10-18T17:29:04.441Z,6.40
2022-10-18T17:31:33.191Z,6.60
2022-10-18T17:34:00.917Z,6.67
2022-10-18T17:36:30.289Z,7.20
2022-10-18T17:38:58.232Z,7.40
2022-10-18T17:41:25.821Z,6.72
2022-10-18T17:43:53.576Z,7.40
2022-10-18T17:46:22.351Z,6.60
2022-10-18T17:48:50.273Z,6.90
2022-10-18T17:51:18.164Z,7.40
2022-10-18T17:53:46.666Z,6.60
2022-10-18T17:56:16.361Z,7.28
2022-10-18T17:58:44.679Z,7.20
2022-10-18T18:01:17.032Z,8.20
2022-10-18T18:03:45.603Z,8.02
2022-10-18T18:06:17.139Z,7.65
2022-10-18T18:08:46.516Z,7.75
2022-10-18T18:11:14.141Z,8.00
2022-10-18T18:13:44.636Z,7.47
2022-10-18T18:16:18.443Z,7.72
2022-10-18T18:18:47.108Z,7.40
2022-10-18T18:21:14.846Z,7.82
2022-10-18T18:23:45.008Z,7.33
2022-10-18T18:26:15.133Z,7.40
2022-10-18T18:28:43.241Z,6.68
2022-10-18T18:31:34.549Z,7.60
2022-10-18T18:34:07.264Z,6.80
2022-10-18T18:36:35.036Z,8.10
2022-10-18T18:39:03.074Z,7.68
2022-10-18T18:41:30.778Z,6.80
2022-10-18T18:44:02.465Z,6.65
2022-10-18T18:46:32.450Z,7.07
2022-10-18T18:49:00.362Z,7.43
2022-10-18T18:51:29.474Z,7.03
2022-10-18T18:53:57.653Z,7.47
2022-10-18T18:56:27.823Z,6.70
2022-10-18T18:58:58.232Z,7.10
2022-10-18T19:01:36.961Z,6.60
2022-10-18T19:04:07.465Z,7.15
2022-10-18T19:06:41.374Z,5.97
2022-10-18T19:09:20.434Z,6.68
2022-10-18T19:11:55.279Z,6.28
2022-10-18T19:14:25.380Z,7.03
2022-10-18T19:16:57.885Z,7.00
2022-10-18T19:19:28.512Z,7.22
2022-10-18T19:21:59.042Z,7.45
2022-10-18T19:24:29.589Z,7.07
2022-10-18T19:27:01.638Z,7.03
2022-10-18T19:29:32.120Z,6.90
2022-10-18T19:32:04.764Z,6.68
2022-10-18T19:34:36.148Z,6.90
2022-10-18T19:37:04.505Z,6.63
2022-10-18T19:39:35.635Z,6.77
2022-10-18T19:42:06.657Z,6.55
2022-10-18T19:44:37.050Z,6.30
2022-10-18T19:47:06.896Z,6.55
2022-10-18T19:49:40.640Z,6.63
2022-10-18T19:52:08.012Z,6.27
2022-10-18T19:54:35.776Z,6.40
2022-10-18T19:57:03.488Z,6.80
2022-10-18T19:59:31.217Z,7.82
2022-10-18T20:01:58.965Z,3.38
2022-10-18T20:04:26.051Z,2.50
2022-10-18T20:06:53.219Z,2.40
2022-10-18T20:09:20.815Z,2.70
2022-10-18T20:11:48.571Z,2.22
2022-10-18T20:14:16.012Z,2.47
2022-10-18T20:16:43.185Z,2.67
2022-10-18T20:19:10.387Z,2.60
2022-10-18T20:21:37.384Z,2.70
2022-10-18T20:24:05.755Z,2.85
2022-10-18T20:26:33.625Z,2.80
2022-10-18T20:29:01.002Z,3.17
2022-10-18T20:31:30.330Z,3.30
2022-10-18T20:34:02.221Z,3.20
2022-10-18T20:36:31.099Z,3.33
2022-10-18T20:38:58.545Z,2.83
2022-10-18T20:41:30.794Z,2.70
2022-10-18T20:44:01.246Z,2.97
2022-10-18T20:46:31.388Z,2.90
2022-10-18T20:48:58.156Z,2.75
2022-10-18T20:51:25.210Z,2.63
2022-10-18T20:53:52.277Z,2.40
2022-10-18T20:56:21.706Z,2.65
2022-10-18T20:58:53.950Z,2.60
2022-10-18T21:01:27.198Z,2.00
2022-10-18T21:03:58.976Z,2.30
2022-10-18T21:06:28.951Z,2.20
2022-10-18T21:08:58.573Z,2.10
2022-10-18T21:11:26.903Z,2.28
2022-10-18T21:14:01.402Z,2.67
2022-10-18T21:16:32.803Z,2.10
2022-10-18T21:19:16.685Z,2.10
2022-10-18T21:21:45.687Z,2.25
2022-10-18T21:24:13.997Z,2.60
2022-10-18T21:26:40.879Z,2.28
2022-10-18T21:29:08.297Z,2.22
2022-10-18T21:31:37.560Z,2.57
2022-10-18T21:34:08.124Z,2.30
2022-10-18T21:36:37.082Z,1.60
2022-10-18T21:39:06.188Z,2.15
2022-10-18T21:41:34.078Z,2.33
2022-10-18T21:44:01.651Z,2.80
2022-10-18T21:46:29.230Z,2.30
2022-10-18T21:48:57.224Z,2.47
2022-10-18T21:51:26.637Z,2.38
2022-10-18T21:53:56.490Z,2.40
2022-10-18T21:56:34.791Z,2.37
2022-10-18T21:59:02.368Z,2.50
2022-10-18T22:01:32.422Z,2.28
2022-10-18T22:04:01.149Z,2.10
2022-10-18T22:06:29.380Z,2.00
2022-10-18T22:09:02.161Z,2.40
2022-10-18T22:11:34.661Z,1.83
2022-10-18T22:14:01.625Z,2.30
2022-10-18T22:16:28.676Z,2.10
2022-10-18T22:19:01.233Z,1.90
2022-10-18T22:21:28.501Z,1.83
2022-10-18T22:23:57.573Z,2.33
2022-10-18T22:26:34.936Z,1.60
2022-10-18T22:29:05.299Z,1.73
2022-10-18T22:31:36.845Z,1.70
2022-10-18T22:34:11.091Z,1.93
2022-10-18T22:36:38.007Z,1.73
2022-10-18T22:39:06.232Z,1.83
2022-10-18T22:41:34.698Z,2.30
2022-10-18T22:44:03.644Z,1.98
2022-10-18T22:46:32.333Z,2.07
2022-10-18T22:48:59.088Z,2.28
2022-10-18T22:51:26.015Z,1.80
2022-10-18T22:53:53.160Z,2.20
2022-10-18T22:56:22.086Z,2.17
2022-10-18T22:58:49.538Z,2.10
2022-10-18T23:01:20.010Z,2.50
2022-10-18T23:03:47.401Z,2.40
2022-10-18T23:06:23.674Z,2.40
2022-10-18T23:08:51.465Z,2.50
2022-10-18T23:11:18.881Z,2.40
2022-10-18T23:13:47.149Z,2.53
2022-10-18T23:16:14.527Z,2.53
2022-10-18T23:18:41.799Z,2.53
2022-10-18T23:21:11.088Z,2.58
2022-10-18T23:23:41.368Z,2.70
2022-10-18T23:26:11.792Z,2.83
2022-10-18T23:28:41.895Z,2.88
2022-10-18T23:31:14.928Z,2.90
2022-10-18T23:33:41.903Z,3.25
2022-10-18T23:36:09.268Z,3.30
2022-10-18T23:38:38.340Z,3.08
2022-10-18T23:41:06.941Z,3.50
2022-10-18T23:43:34.244Z,3.15
2022-10-18T23:46:01.081Z,3.33
2022-10-18T23:48:28.763Z,2.70
2022-10-18T23:50:55.923Z,2.90
2022-10-18T23:53:23.783Z,3.42
2022-10-18T23:55:58.783Z,3.17
2022-10-18T23:58:27.453Z,3.30
